KRSW/RSW METAR and TAF weather

Enter ICAO airport designator
Station Type Date Time Source
KRSW METAR 2022/06/25 22:07 UTC NOAA

KRSW 252207Z 30007KT 10SM TS SCT040 BKN050 32/24 A2995 RMK AO2 LTG DSNT NW TSB01 T03170244


Station Type Date Time Source
KRSW Decoded METAR 2022/06/25 22:07 UTC NOAA

FORT MYERS SW FL INTERNATIONAL AIRPORT , FL, United States (KRSW) 26-32N 081-46W 9M
Jun 25, 2022 - 06:07 PM EDT / 2022.06.25 2207 UTC
Wind: from the WNW (300 degrees) at 8 MPH (7 KT):0
Visibility: 10 mile(s):0
Sky conditions: mostly cloudy
Weather: thunder; Lightning observed
Temperature: 89.1 F (31.7 C)
Heat index: 100.2 F (37.9 C):1
Dew Point: 75.9 F (24.4 C)
Relative Humidity: 65%
Pressure (altimeter): 29.95 in. Hg (1014 hPa)
ob: KRSW 252207Z 30007KT 10SM TS SCT040 BKN050 32/24 A2995 RMK AO2 LTG DSNT NW TSB01 T03170244
cycle: 22

Station Type Date Time Source
KRSW TAF 2022/06/25 18:36 UTC NOAA

TAF KRSW 251734Z 2518/2618 29008KT P6SM VCSH FEW040 BKN100
FM252200 35007KT P6SM VCTS SCT025CB BKN050 BKN100
TEMPO 2523/2602 3SM TSRA SCT015CB OVC025
FM260200 05004KT P6SM SCT050 BKN250
FM261400 11005KT P6SM FEW035 SCT250

Example: see airport list